Orbital elements of COSMOS 2523
| Launched | 22 June 2017 |
| Flight ended | – |
| Launch site | Plesetsk Missile and Space Complex, Russia |
| Owner | Commonwealth of Independent States (former USSR) |
| NORAD ID | 42986 |
| Date fetched |
Epoch osculation |
Inc. [°] |
Ecc. | RA asc node [hr] |
Arg Peri. [°] |
Mean anom [°] |
Mean motion [rev/day] |
Abs. mag |
| Date fetched |
Epoch osculation |
Inc. [°] |
Ecc. | RA asc node [hr] |
Arg Peri. [°] |
Mean anom [°] |
Mean motion [rev/day] |
Abs. mag |
| 2026 May 04 17:57 | 2026 May 04 12:07:56 | 97.4997 | 0.00675 | 9.2982 | 17.7316 | 342.6239 | 14.95293 | – |
| 2026 May 03 17:57 | 2026 May 03 12:02:30 | 97.4998 | 0.00675 | 9.2341 | 21.0472 | 342.6239 | 14.95293 | – |
| 2026 May 02 17:57 | 2026 May 02 11:57:05 | 97.5000 | 0.00677 | 9.1701 | 24.3361 | 342.6239 | 14.95293 | – |
| 2026 May 01 17:56 | 2026 May 01 11:51:38 | 97.5001 | 0.00679 | 9.1060 | 27.6644 | 342.6239 | 14.95293 | – |
| 2026 Apr 30 17:56 | 2026 Apr 30 13:22:34 | 97.5006 | 0.00680 | 9.0462 | 30.7838 | 342.6239 | 14.95293 | – |
| 2026 Apr 29 17:57 | 2026 Apr 29 13:17:07 | 97.5013 | 0.00682 | 8.9822 | 34.1686 | 342.6239 | 14.95293 | – |
| 2026 Apr 28 17:56 | 2026 Apr 28 13:11:40 | 97.5018 | 0.00683 | 8.9182 | 37.5518 | 342.6239 | 14.95293 | – |
| 2026 Apr 27 17:58 | 2026 Apr 27 13:06:13 | 97.5021 | 0.00685 | 8.8541 | 40.9382 | 342.6239 | 14.95293 | – |
| 2026 Apr 26 17:58 | 2026 Apr 26 13:00:45 | 97.5027 | 0.00685 | 8.7900 | 44.3066 | 342.6239 | 14.95293 | – |
| 2026 Apr 25 17:58 | 2026 Apr 25 12:55:18 | 97.5028 | 0.00687 | 8.7260 | 47.6220 | 342.6239 | 14.95293 | – |
| 2026 Apr 24 17:59 | 2026 Apr 24 12:49:50 | 97.5027 | 0.00688 | 8.6619 | 50.9489 | 342.6239 | 14.95293 | – |
| 2026 Apr 23 17:57 | 2026 Apr 23 06:18:54 | 97.5024 | 0.00688 | 8.5808 | 55.1761 | 342.6239 | 14.95293 | – |
| 2026 Apr 22 17:57 | 2026 Apr 22 06:13:25 | 97.5019 | 0.00688 | 8.5167 | 58.4488 | 342.6239 | 14.95293 | – |
| 2026 Apr 21 17:57 | 2026 Apr 21 12:33:24 | 97.5016 | 0.00688 | 8.4697 | 60.8735 | 342.6239 | 14.95293 | – |
| 2026 Apr 20 17:57 | 2026 Apr 20 12:27:55 | 97.5014 | 0.00687 | 8.4056 | 64.1372 | 342.6239 | 14.95293 | – |
| 2026 Apr 19 17:58 | 2026 Apr 19 12:22:25 | 97.5014 | 0.00687 | 8.3415 | 67.3745 | 342.6239 | 14.95293 | – |
| 2026 Apr 18 17:56 | 2026 Apr 18 07:27:50 | 97.5016 | 0.00686 | 8.2647 | 71.3273 | 342.6239 | 14.95293 | – |
| 2026 Apr 16 17:57 | 2026 Apr 16 07:16:50 | 97.5023 | 0.00686 | 8.1366 | 77.8265 | 342.6239 | 14.95293 | – |
| 2026 Apr 14 17:57 | 2026 Apr 14 11:54:55 | 97.5031 | 0.00687 | 8.0213 | 83.6653 | 342.6239 | 14.95293 | – |
| 2026 Apr 13 17:57 | 2026 Apr 13 07:00:18 | 97.5037 | 0.00688 | 7.9444 | 87.5985 | 342.6239 | 14.95293 | – |
| 2026 Apr 12 17:57 | 2026 Apr 12 11:43:53 | 97.5040 | 0.00688 | 7.8932 | 90.2029 | 342.6239 | 14.95293 | – |
| 2026 Apr 11 17:57 | 2026 Apr 11 11:38:23 | 97.5043 | 0.00689 | 7.8291 | 93.5048 | 342.6239 | 14.95293 | – |
| 2026 Apr 10 17:58 | 2026 Apr 10 06:43:45 | 97.5046 | 0.00690 | 7.7523 | 97.4466 | 342.6239 | 14.95293 | – |
| 2026 Apr 09 18:01 | 2026 Apr 09 08:14:36 | 97.5044 | 0.00690 | 7.6925 | 100.5415 | 342.6239 | 14.95293 | – |
| 2026 Apr 08 17:57 | 2026 Apr 08 06:32:43 | 97.5043 | 0.00690 | 7.6241 | 104.0951 | 342.6239 | 14.95293 | – |
| 2026 Apr 07 17:57 | 2026 Apr 07 06:27:11 | 97.5041 | 0.00690 | 7.5600 | 107.3830 | 342.6239 | 14.95293 | – |